sensor_id;sensor_type;location;lat;lon;timestamp;P1;durP1;ratioP1;P2;durP2;ratioP2
26622;SDS011;14254;50.968;5.366;2023-07-20T00:00:28;13.40;;;5.93;;
26622;SDS011;14254;50.968;5.366;2023-07-20T00:03:09;11.35;;;4.72;;
26622;SDS011;14254;50.968;5.366;2023-07-20T00:05:41;9.45;;;5.03;;
26622;SDS011;14254;50.968;5.366;2023-07-20T00:08:10;9.45;;;5.13;;
26622;SDS011;14254;50.968;5.366;2023-07-20T00:10:36;8.88;;;5.30;;
26622;SDS011;14254;50.968;5.366;2023-07-20T00:13:01;11.93;;;6.05;;
26622;SDS011;14254;50.968;5.366;2023-07-20T00:15:27;7.47;;;5.40;;
26622;SDS011;14254;50.968;5.366;2023-07-20T00:17:53;9.40;;;5.60;;
26622;SDS011;14254;50.968;5.366;2023-07-20T00:20:19;8.23;;;5.47;;
26622;SDS011;14254;50.968;5.366;2023-07-20T00:22:44;12.52;;;6.07;;
26622;SDS011;14254;50.968;5.366;2023-07-20T00:25:10;8.45;;;5.55;;
26622;SDS011;14254;50.968;5.366;2023-07-20T00:27:39;10.63;;;6.47;;
26622;SDS011;14254;50.968;5.366;2023-07-20T00:30:04;10.55;;;5.85;;
26622;SDS011;14254;50.968;5.366;2023-07-20T00:32:31;8.98;;;5.70;;
26622;SDS011;14254;50.968;5.366;2023-07-20T00:34:56;10.40;;;5.80;;
26622;SDS011;14254;50.968;5.366;2023-07-20T00:37:22;12.75;;;6.22;;
26622;SDS011;14254;50.968;5.366;2023-07-20T00:39:48;13.05;;;5.88;;
26622;SDS011;14254;50.968;5.366;2023-07-20T00:42:13;10.55;;;5.80;;
26622;SDS011;14254;50.968;5.366;2023-07-20T00:44:39;9.90;;;6.85;;
26622;SDS011;14254;50.968;5.366;2023-07-20T00:47:05;7.93;;;5.43;;
26622;SDS011;14254;50.968;5.366;2023-07-20T00:49:31;9.52;;;5.82;;
26622;SDS011;14254;50.968;5.366;2023-07-20T00:51:58;8.38;;;5.32;;
26622;SDS011;14254;50.968;5.366;2023-07-20T00:54:26;10.35;;;5.60;;
26622;SDS011;14254;50.968;5.366;2023-07-20T00:56:53;8.15;;;5.28;;
26622;SDS011;14254;50.968;5.366;2023-07-20T00:59:19;8.48;;;5.68;;
26622;SDS011;14254;50.968;5.366;2023-07-20T01:01:46;11.98;;;5.32;;
26622;SDS011;14254;50.968;5.366;2023-07-20T01:04:12;11.57;;;6.25;;
26622;SDS011;14254;50.968;5.366;2023-07-20T01:09:14;11.95;;;6.03;;
26622;SDS011;14254;50.968;5.366;2023-07-20T01:14:24;10.45;;;5.63;;
26622;SDS011;14254;50.968;5.366;2023-07-20T01:16:50;12.73;;;5.75;;
26622;SDS011;14254;50.968;5.366;2023-07-20T01:19:17;17.55;;;5.70;;
26622;SDS011;14254;50.968;5.366;2023-07-20T01:21:50;12.02;;;5.53;;
26622;SDS011;14254;50.968;5.366;2023-07-20T01:30:16;14.40;;;5.68;;
26622;SDS011;14254;50.968;5.366;2023-07-20T01:32:45;13.55;;;6.15;;
26622;SDS011;14254;50.968;5.366;2023-07-20T01:35:13;10.23;;;5.50;;
26622;SDS011;14254;50.968;5.366;2023-07-20T01:37:42;12.20;;;5.10;;
26622;SDS011;14254;50.968;5.366;2023-07-20T01:40:10;8.52;;;5.20;;
26622;SDS011;14254;50.968;5.366;2023-07-20T01:42:36;11.38;;;5.57;;
26622;SDS011;14254;50.968;5.366;2023-07-20T01:45:04;8.75;;;5.03;;
26622;SDS011;14254;50.968;5.366;2023-07-20T01:47:29;14.57;;;6.20;;
26622;SDS011;14254;50.968;5.366;2023-07-20T01:49:55;10.77;;;5.63;;
26622;SDS011;14254;50.968;5.366;2023-07-20T01:52:21;7.45;;;4.97;;
26622;SDS011;14254;50.968;5.366;2023-07-20T01:54:46;9.95;;;4.95;;
26622;SDS011;14254;50.968;5.366;2023-07-20T01:57:12;14.65;;;5.90;;
26622;SDS011;14254;50.968;5.366;2023-07-20T01:59:38;10.73;;;5.45;;
26622;SDS011;14254;50.968;5.366;2023-07-20T02:02:03;10.43;;;5.28;;
26622;SDS011;14254;50.968;5.366;2023-07-20T02:04:29;11.55;;;5.28;;
26622;SDS011;14254;50.968;5.366;2023-07-20T02:06:55;12.20;;;5.20;;
26622;SDS011;14254;50.968;5.366;2023-07-20T02:09:20;9.00;;;5.43;;
26622;SDS011;14254;50.968;5.366;2023-07-20T02:11:46;11.95;;;5.30;;
26622;SDS011;14254;50.968;5.366;2023-07-20T02:14:12;9.57;;;5.35;;
26622;SDS011;14254;50.968;5.366;2023-07-20T02:16:37;10.82;;;4.95;;
26622;SDS011;14254;50.968;5.366;2023-07-20T02:19:03;10.18;;;5.78;;
26622;SDS011;14254;50.968;5.366;2023-07-20T02:21:31;11.45;;;5.68;;
26622;SDS011;14254;50.968;5.366;2023-07-20T02:23:57;10.18;;;5.78;;
26622;SDS011;14254;50.968;5.366;2023-07-20T02:26:23;13.70;;;5.20;;
26622;SDS011;14254;50.968;5.366;2023-07-20T02:28:49;10.10;;;5.38;;
26622;SDS011;14254;50.968;5.366;2023-07-20T02:31:14;8.57;;;4.47;;
26622;SDS011;14254;50.968;5.366;2023-07-20T02:33:40;16.10;;;5.88;;
26622;SDS011;14254;50.968;5.366;2023-07-20T02:36:06;16.65;;;6.07;;
26622;SDS011;14254;50.968;5.366;2023-07-20T02:38:31;14.20;;;5.88;;
26622;SDS011;14254;50.968;5.366;2023-07-20T02:40:57;9.90;;;5.65;;
26622;SDS011;14254;50.968;5.366;2023-07-20T02:43:22;13.05;;;6.10;;
26622;SDS011;14254;50.968;5.366;2023-07-20T02:45:49;13.02;;;5.45;;
26622;SDS011;14254;50.968;5.366;2023-07-20T02:48:15;12.18;;;5.45;;
26622;SDS011;14254;50.968;5.366;2023-07-20T02:50:41;15.00;;;5.80;;
26622;SDS011;14254;50.968;5.366;2023-07-20T02:53:08;14.45;;;5.68;;
26622;SDS011;14254;50.968;5.366;2023-07-20T02:55:34;10.15;;;5.53;;
26622;SDS011;14254;50.968;5.366;2023-07-20T02:57:59;16.20;;;6.32;;
26622;SDS011;14254;50.968;5.366;2023-07-20T03:00:25;13.02;;;5.53;;
26622;SDS011;14254;50.968;5.366;2023-07-20T03:02:51;12.02;;;5.60;;
26622;SDS011;14254;50.968;5.366;2023-07-20T03:05:20;12.18;;;5.78;;
26622;SDS011;14254;50.968;5.366;2023-07-20T03:07:47;11.90;;;6.22;;
26622;SDS011;14254;50.968;5.366;2023-07-20T03:10:14;13.57;;;5.95;;
26622;SDS011;14254;50.968;5.366;2023-07-20T03:12:39;11.68;;;5.85;;
26622;SDS011;14254;50.968;5.366;2023-07-20T03:15:05;13.23;;;6.32;;
26622;SDS011;14254;50.968;5.366;2023-07-20T03:17:31;10.80;;;5.88;;
26622;SDS011;14254;50.968;5.366;2023-07-20T03:19:57;12.00;;;5.60;;
26622;SDS011;14254;50.968;5.366;2023-07-20T03:22:24;15.65;;;7.10;;
26622;SDS011;14254;50.968;5.366;2023-07-20T03:24:50;10.30;;;5.47;;
26622;SDS011;14254;50.968;5.366;2023-07-20T03:27:17;12.82;;;6.20;;
26622;SDS011;14254;50.968;5.366;2023-07-20T03:29:43;9.32;;;5.93;;
26622;SDS011;14254;50.968;5.366;2023-07-20T03:32:09;14.85;;;5.82;;
26622;SDS011;14254;50.968;5.366;2023-07-20T03:34:35;13.98;;;7.45;;
26622;SDS011;14254;50.968;5.366;2023-07-20T03:37:01;12.50;;;5.95;;
26622;SDS011;14254;50.968;5.366;2023-07-20T03:39:29;12.48;;;6.75;;
26622;SDS011;14254;50.968;5.366;2023-07-20T03:41:55;12.57;;;6.60;;
26622;SDS011;14254;50.968;5.366;2023-07-20T03:44:20;16.15;;;5.90;;
26622;SDS011;14254;50.968;5.366;2023-07-20T03:46:46;13.60;;;5.57;;
26622;SDS011;14254;50.968;5.366;2023-07-20T03:49:11;12.85;;;6.20;;
26622;SDS011;14254;50.968;5.366;2023-07-20T03:51:37;14.18;;;7.00;;
26622;SDS011;14254;50.968;5.366;2023-07-20T03:54:03;14.43;;;6.95;;
26622;SDS011;14254;50.968;5.366;2023-07-20T03:56:28;16.40;;;6.13;;
26622;SDS011;14254;50.968;5.366;2023-07-20T03:58:59;12.88;;;6.40;;
26622;SDS011;14254;50.968;5.366;2023-07-20T04:01:24;21.73;;;7.47;;
26622;SDS011;14254;50.968;5.366;2023-07-20T04:03:50;13.75;;;5.93;;
26622;SDS011;14254;50.968;5.366;2023-07-20T04:06:16;15.60;;;6.55;;
26622;SDS011;14254;50.968;5.366;2023-07-20T04:08:42;18.10;;;6.72;;
26622;SDS011;14254;50.968;5.366;2023-07-20T04:11:09;12.10;;;6.90;;
26622;SDS011;14254;50.968;5.366;2023-07-20T04:13:35;12.95;;;6.28;;
26622;SDS011;14254;50.968;5.366;2023-07-20T04:16:00;10.50;;;6.70;;
26622;SDS011;14254;50.968;5.366;2023-07-20T04:18:27;16.52;;;6.78;;
26622;SDS011;14254;50.968;5.366;2023-07-20T04:20:53;12.88;;;7.43;;
26622;SDS011;14254;50.968;5.366;2023-07-20T04:23:18;12.30;;;6.70;;
26622;SDS011;14254;50.968;5.366;2023-07-20T04:25:44;11.25;;;6.97;;
26622;SDS011;14254;50.968;5.366;2023-07-20T04:28:10;12.65;;;6.32;;
26622;SDS011;14254;50.968;5.366;2023-07-20T04:30:36;19.60;;;8.63;;
26622;SDS011;14254;50.968;5.366;2023-07-20T04:33:05;15.93;;;6.70;;
26622;SDS011;14254;50.968;5.366;2023-07-20T04:38:19;14.13;;;6.97;;
26622;SDS011;14254;50.968;5.366;2023-07-20T04:40:45;17.25;;;8.25;;
26622;SDS011;14254;50.968;5.366;2023-07-20T04:43:15;17.75;;;7.55;;
26622;SDS011;14254;50.968;5.366;2023-07-20T04:45:41;14.10;;;7.45;;
26622;SDS011;14254;50.968;5.366;2023-07-20T04:48:11;10.60;;;7.15;;
26622;SDS011;14254;50.968;5.366;2023-07-20T04:50:41;15.98;;;7.53;;
26622;SDS011;14254;50.968;5.366;2023-07-20T04:53:10;17.92;;;9.38;;
26622;SDS011;14254;50.968;5.366;2023-07-20T04:55:37;17.65;;;8.15;;
26622;SDS011;14254;50.968;5.366;2023-07-20T04:58:04;20.85;;;7.95;;
26622;SDS011;14254;50.968;5.366;2023-07-20T05:00:30;17.65;;;8.38;;
26622;SDS011;14254;50.968;5.366;2023-07-20T05:02:57;19.25;;;8.85;;
26622;SDS011;14254;50.968;5.366;2023-07-20T05:05:23;15.55;;;10.93;;
26622;SDS011;14254;50.968;5.366;2023-07-20T05:07:48;15.50;;;11.05;;
26622;SDS011;14254;50.968;5.366;2023-07-20T05:10:14;20.42;;;11.15;;
26622;SDS011;14254;50.968;5.366;2023-07-20T05:12:40;21.10;;;12.02;;
26622;SDS011;14254;50.968;5.366;2023-07-20T05:15:05;21.50;;;11.05;;
26622;SDS011;14254;50.968;5.366;2023-07-20T05:17:31;19.52;;;10.52;;
26622;SDS011;14254;50.968;5.366;2023-07-20T05:19:57;19.83;;;10.68;;
26622;SDS011;14254;50.968;5.366;2023-07-20T05:22:23;23.27;;;11.50;;
26622;SDS011;14254;50.968;5.366;2023-07-20T05:24:49;20.70;;;11.38;;
26622;SDS011;14254;50.968;5.366;2023-07-20T05:27:15;17.42;;;11.40;;
26622;SDS011;14254;50.968;5.366;2023-07-20T05:29:44;20.98;;;12.30;;
26622;SDS011;14254;50.968;5.366;2023-07-20T05:32:11;19.23;;;11.23;;
26622;SDS011;14254;50.968;5.366;2023-07-20T05:34:37;26.10;;;14.35;;
26622;SDS011;14254;50.968;5.366;2023-07-20T05:37:03;27.15;;;13.45;;
26622;SDS011;14254;50.968;5.366;2023-07-20T05:39:28;20.52;;;12.05;;
26622;SDS011;14254;50.968;5.366;2023-07-20T05:41:54;21.90;;;14.45;;
26622;SDS011;14254;50.968;5.366;2023-07-20T05:44:20;25.73;;;13.35;;
26622;SDS011;14254;50.968;5.366;2023-07-20T05:46:45;19.55;;;12.88;;
26622;SDS011;14254;50.968;5.366;2023-07-20T05:49:11;25.13;;;13.00;;
26622;SDS011;14254;50.968;5.366;2023-07-20T05:51:37;29.08;;;15.55;;
26622;SDS011;14254;50.968;5.366;2023-07-20T05:54:02;22.58;;;14.50;;
26622;SDS011;14254;50.968;5.366;2023-07-20T05:56:28;25.08;;;14.30;;
26622;SDS011;14254;50.968;5.366;2023-07-20T05:58:53;25.05;;;15.77;;
26622;SDS011;14254;50.968;5.366;2023-07-20T06:01:19;22.60;;;14.50;;
26622;SDS011;14254;50.968;5.366;2023-07-20T06:03:45;26.48;;;15.55;;
26622;SDS011;14254;50.968;5.366;2023-07-20T06:06:10;23.73;;;15.25;;
26622;SDS011;14254;50.968;5.366;2023-07-20T06:08:37;28.85;;;18.73;;
26622;SDS011;14254;50.968;5.366;2023-07-20T06:11:03;28.80;;;16.98;;
26622;SDS011;14254;50.968;5.366;2023-07-20T06:13:29;27.92;;;17.77;;
26622;SDS011;14254;50.968;5.366;2023-07-20T06:15:54;25.25;;;15.63;;
26622;SDS011;14254;50.968;5.366;2023-07-20T06:18:21;25.08;;;17.27;;
26622;SDS011;14254;50.968;5.366;2023-07-20T06:20:48;25.55;;;17.92;;
26622;SDS011;14254;50.968;5.366;2023-07-20T06:23:18;27.67;;;17.58;;
26622;SDS011;14254;50.968;5.366;2023-07-20T06:25:44;29.63;;;17.15;;
26622;SDS011;14254;50.968;5.366;2023-07-20T06:28:10;25.30;;;17.48;;
26622;SDS011;14254;50.968;5.366;2023-07-20T06:30:36;28.67;;;17.13;;
26622;SDS011;14254;50.968;5.366;2023-07-20T06:33:02;23.40;;;17.55;;
26622;SDS011;14254;50.968;5.366;2023-07-20T06:35:28;24.38;;;17.48;;
26622;SDS011;14254;50.968;5.366;2023-07-20T06:37:53;27.17;;;17.45;;
26622;SDS011;14254;50.968;5.366;2023-07-20T06:40:19;28.40;;;17.25;;
26622;SDS011;14254;50.968;5.366;2023-07-20T06:42:46;20.92;;;16.17;;
26622;SDS011;14254;50.968;5.366;2023-07-20T06:45:11;25.00;;;17.30;;
26622;SDS011;14254;50.968;5.366;2023-07-20T06:47:38;27.27;;;18.65;;
26622;SDS011;14254;50.968;5.366;2023-07-20T06:50:07;26.38;;;17.33;;
26622;SDS011;14254;50.968;5.366;2023-07-20T06:52:34;23.90;;;17.00;;
26622;SDS011;14254;50.968;5.366;2023-07-20T06:54:59;21.52;;;16.42;;
26622;SDS011;14254;50.968;5.366;2023-07-20T06:57:25;28.85;;;17.50;;
26622;SDS011;14254;50.968;5.366;2023-07-20T06:59:51;25.42;;;17.05;;
26622;SDS011;14254;50.968;5.366;2023-07-20T07:02:18;22.25;;;16.58;;
26622;SDS011;14254;50.968;5.366;2023-07-20T07:04:44;21.45;;;15.07;;
26622;SDS011;14254;50.968;5.366;2023-07-20T07:07:13;27.40;;;17.45;;
26622;SDS011;14254;50.968;5.366;2023-07-20T07:09:39;23.92;;;16.27;;
26622;SDS011;14254;50.968;5.366;2023-07-20T07:12:06;24.00;;;15.82;;
26622;SDS011;14254;50.968;5.366;2023-07-20T07:14:32;21.90;;;15.40;;
26622;SDS011;14254;50.968;5.366;2023-07-20T07:16:57;18.67;;;13.52;;
26622;SDS011;14254;50.968;5.366;2023-07-20T07:19:23;22.85;;;13.60;;
26622;SDS011;14254;50.968;5.366;2023-07-20T07:21:49;16.95;;;12.60;;
26622;SDS011;14254;50.968;5.366;2023-07-20T07:24:15;26.73;;;15.18;;
26622;SDS011;14254;50.968;5.366;2023-07-20T07:26:41;19.05;;;14.00;;
26622;SDS011;14254;50.968;5.366;2023-07-20T07:29:07;19.48;;;13.65;;
26622;SDS011;14254;50.968;5.366;2023-07-20T07:31:33;19.10;;;13.00;;
26622;SDS011;14254;50.968;5.366;2023-07-20T07:34:00;20.05;;;13.88;;
26622;SDS011;14254;50.968;5.366;2023-07-20T07:36:27;17.75;;;13.48;;
26622;SDS011;14254;50.968;5.366;2023-07-20T07:38:53;25.17;;;15.25;;
26622;SDS011;14254;50.968;5.366;2023-07-20T07:41:18;20.85;;;14.95;;
26622;SDS011;14254;50.968;5.366;2023-07-20T07:43:45;20.30;;;15.25;;
26622;SDS011;14254;50.968;5.366;2023-07-20T07:46:11;17.92;;;14.38;;
26622;SDS011;14254;50.968;5.366;2023-07-20T07:48:37;17.30;;;11.73;;
26622;SDS011;14254;50.968;5.366;2023-07-20T07:51:03;15.35;;;11.90;;
26622;SDS011;14254;50.968;5.366;2023-07-20T07:53:28;14.35;;;10.65;;
26622;SDS011;14254;50.968;5.366;2023-07-20T07:55:54;11.05;;;9.20;;
26622;SDS011;14254;50.968;5.366;2023-07-20T07:58:20;16.25;;;12.23;;
26622;SDS011;14254;50.968;5.366;2023-07-20T08:00:46;17.10;;;10.77;;
26622;SDS011;14254;50.968;5.366;2023-07-20T08:03:12;13.80;;;10.27;;
26622;SDS011;14254;50.968;5.366;2023-07-20T08:05:38;15.45;;;11.50;;
26622;SDS011;14254;50.968;5.366;2023-07-20T08:08:04;16.02;;;12.00;;
26622;SDS011;14254;50.968;5.366;2023-07-20T08:10:30;14.00;;;11.07;;
26622;SDS011;14254;50.968;5.366;2023-07-20T08:12:56;14.20;;;10.80;;
26622;SDS011;14254;50.968;5.366;2023-07-20T08:15:22;14.48;;;9.73;;
26622;SDS011;14254;50.968;5.366;2023-07-20T08:17:47;12.50;;;7.60;;
26622;SDS011;14254;50.968;5.366;2023-07-20T08:20:14;10.77;;;8.73;;
26622;SDS011;14254;50.968;5.366;2023-07-20T08:22:41;12.93;;;8.63;;
26622;SDS011;14254;50.968;5.366;2023-07-20T08:25:07;11.35;;;8.27;;
26622;SDS011;14254;50.968;5.366;2023-07-20T08:27:34;12.00;;;7.72;;
26622;SDS011;14254;50.968;5.366;2023-07-20T08:30:00;11.77;;;8.07;;
26622;SDS011;14254;50.968;5.366;2023-07-20T08:32:26;12.10;;;8.35;;
26622;SDS011;14254;50.968;5.366;2023-07-20T08:34:52;11.80;;;8.23;;
26622;SDS011;14254;50.968;5.366;2023-07-20T08:37:18;9.10;;;7.57;;
26622;SDS011;14254;50.968;5.366;2023-07-20T08:39:43;8.43;;;7.50;;
26622;SDS011;14254;50.968;5.366;2023-07-20T08:42:09;11.13;;;6.20;;
26622;SDS011;14254;50.968;5.366;2023-07-20T08:44:35;8.65;;;6.53;;
26622;SDS011;14254;50.968;5.366;2023-07-20T08:47:03;8.68;;;6.55;;
26622;SDS011;14254;50.968;5.366;2023-07-20T08:49:34;9.52;;;6.72;;
26622;SDS011;14254;50.968;5.366;2023-07-20T08:52:00;7.93;;;6.80;;
26622;SDS011;14254;50.968;5.366;2023-07-20T08:54:28;10.27;;;6.53;;
26622;SDS011;14254;50.968;5.366;2023-07-20T08:56:57;10.13;;;7.17;;
26622;SDS011;14254;50.968;5.366;2023-07-20T08:59:28;8.15;;;5.70;;
26622;SDS011;14254;50.968;5.366;2023-07-20T09:01:56;6.13;;;5.45;;
26622;SDS011;14254;50.968;5.366;2023-07-20T09:04:23;7.88;;;5.43;;
26622;SDS011;14254;50.968;5.366;2023-07-20T09:06:49;8.88;;;5.32;;
26622;SDS011;14254;50.968;5.366;2023-07-20T09:09:16;6.55;;;5.22;;
26622;SDS011;14254;50.968;5.366;2023-07-20T09:11:42;5.22;;;4.40;;
26622;SDS011;14254;50.968;5.366;2023-07-20T09:14:08;9.02;;;5.40;;
26622;SDS011;14254;50.968;5.366;2023-07-20T09:19:17;8.00;;;4.88;;
26622;SDS011;14254;50.968;5.366;2023-07-20T09:21:46;4.50;;;4.00;;
26622;SDS011;14254;50.968;5.366;2023-07-20T09:24:19;5.18;;;4.53;;
26622;SDS011;14254;50.968;5.366;2023-07-20T09:26:46;5.43;;;4.75;;
26622;SDS011;14254;50.968;5.366;2023-07-20T09:29:19;5.60;;;4.38;;
26622;SDS011;14254;50.968;5.366;2023-07-20T09:34:30;4.53;;;3.72;;
26622;SDS011;14254;50.968;5.366;2023-07-20T09:36:57;5.07;;;3.72;;
26622;SDS011;14254;50.968;5.366;2023-07-20T09:39:29;5.40;;;4.00;;
26622;SDS011;14254;50.968;5.366;2023-07-20T09:41:54;5.45;;;4.15;;
26622;SDS011;14254;50.968;5.366;2023-07-20T09:44:27;5.10;;;3.90;;
26622;SDS011;14254;50.968;5.366;2023-07-20T09:46:53;4.53;;;4.13;;
26622;SDS011;14254;50.968;5.366;2023-07-20T09:49:20;4.30;;;3.90;;
26622;SDS011;14254;50.968;5.366;2023-07-20T09:51:46;3.88;;;2.70;;
26622;SDS011;14254;50.968;5.366;2023-07-20T09:54:13;2.92;;;2.63;;
26622;SDS011;14254;50.968;5.366;2023-07-20T09:56:40;4.57;;;3.25;;
26622;SDS011;14254;50.968;5.366;2023-07-20T09:59:07;5.90;;;3.17;;
26622;SDS011;14254;50.968;5.366;2023-07-20T10:01:34;4.60;;;2.85;;
26622;SDS011;14254;50.968;5.366;2023-07-20T10:04:02;5.60;;;3.17;;
26622;SDS011;14254;50.968;5.366;2023-07-20T10:06:30;5.35;;;3.35;;
26622;SDS011;14254;50.968;5.366;2023-07-20T10:09:00;4.13;;;3.10;;
26622;SDS011;14254;50.968;5.366;2023-07-20T10:11:29;4.97;;;3.50;;
26622;SDS011;14254;50.968;5.366;2023-07-20T10:13:56;4.20;;;3.17;;
26622;SDS011;14254;50.968;5.366;2023-07-20T10:16:58;7.53;;;3.42;;
26622;SDS011;14254;50.968;5.366;2023-07-20T10:19:24;4.38;;;3.20;;
26622;SDS011;14254;50.968;5.366;2023-07-20T10:22:07;5.32;;;2.75;;
26622;SDS011;14254;50.968;5.366;2023-07-20T10:24:39;2.97;;;2.60;;
26622;SDS011;14254;50.968;5.366;2023-07-20T10:27:06;4.22;;;3.30;;
26622;SDS011;14254;50.968;5.366;2023-07-20T10:29:32;3.13;;;2.83;;
26622;SDS011;14254;50.968;5.366;2023-07-20T10:31:58;3.20;;;2.88;;
26622;SDS011;14254;50.968;5.366;2023-07-20T10:34:24;4.20;;;2.22;;
26622;SDS011;14254;50.968;5.366;2023-07-20T10:36:50;3.13;;;2.70;;
26622;SDS011;14254;50.968;5.366;2023-07-20T10:39:23;2.60;;;2.40;;
26622;SDS011;14254;50.968;5.366;2023-07-20T10:41:50;3.75;;;2.30;;
26622;SDS011;14254;50.968;5.366;2023-07-20T10:44:26;3.17;;;2.70;;
26622;SDS011;14254;50.968;5.366;2023-07-20T10:46:52;4.00;;;2.40;;
26622;SDS011;14254;50.968;5.366;2023-07-20T10:49:25;3.60;;;2.30;;
26622;SDS011;14254;50.968;5.366;2023-07-20T10:51:58;2.70;;;2.40;;
26622;SDS011;14254;50.968;5.366;2023-07-20T10:56:54;3.22;;;2.35;;
26622;SDS011;14254;50.968;5.366;2023-07-20T11:01:50;2.30;;;1.88;;
26622;SDS011;14254;50.968;5.366;2023-07-20T11:07:04;2.78;;;1.60;;
26622;SDS011;14254;50.968;5.366;2023-07-20T11:09:34;2.20;;;2.00;;
26622;SDS011;14254;50.968;5.366;2023-07-20T11:12:13;2.13;;;1.70;;
26622;SDS011;14254;50.968;5.366;2023-07-20T11:14:43;2.88;;;1.80;;
26622;SDS011;14254;50.968;5.366;2023-07-20T11:17:19;3.55;;;2.05;;
26622;SDS011;14254;50.968;5.366;2023-07-20T11:19:50;2.15;;;1.95;;
26622;SDS011;14254;50.968;5.366;2023-07-20T11:22:21;1.90;;;1.67;;
26622;SDS011;14254;50.968;5.366;2023-07-20T11:24:47;2.60;;;1.88;;
26622;SDS011;14254;50.968;5.366;2023-07-20T11:27:16;2.92;;;1.80;;
26622;SDS011;14254;50.968;5.366;2023-07-20T11:29:47;6.70;;;2.00;;
26622;SDS011;14254;50.968;5.366;2023-07-20T11:32:19;4.22;;;1.85;;
26622;SDS011;14254;50.968;5.366;2023-07-20T11:34:49;1.70;;;1.60;;
26622;SDS011;14254;50.968;5.366;2023-07-20T11:37:16;1.92;;;1.52;;
26622;SDS011;14254;50.968;5.366;2023-07-20T11:39:43;2.05;;;1.35;;
26622;SDS011;14254;50.968;5.366;2023-07-20T11:42:09;4.47;;;1.90;;
26622;SDS011;14254;50.968;5.366;2023-07-20T11:44:35;2.95;;;1.65;;
26622;SDS011;14254;50.968;5.366;2023-07-20T11:47:05;3.65;;;1.70;;
26622;SDS011;14254;50.968;5.366;2023-07-20T11:49:35;2.17;;;1.98;;
26622;SDS011;14254;50.968;5.366;2023-07-20T11:52:13;3.40;;;1.65;;
26622;SDS011;14254;50.968;5.366;2023-07-20T11:54:40;2.40;;;1.33;;
26622;SDS011;14254;50.968;5.366;2023-07-20T11:57:06;2.67;;;1.58;;
26622;SDS011;14254;50.968;5.366;2023-07-20T11:59:32;3.80;;;1.85;;
26622;SDS011;14254;50.968;5.366;2023-07-20T12:02:01;3.15;;;1.40;;
26622;SDS011;14254;50.968;5.366;2023-07-20T12:04:28;2.58;;;1.40;;
26622;SDS011;14254;50.968;5.366;2023-07-20T12:06:54;1.58;;;1.42;;
26622;SDS011;14254;50.968;5.366;2023-07-20T12:09:20;2.33;;;1.35;;
26622;SDS011;14254;50.968;5.366;2023-07-20T12:11:48;1.83;;;1.70;;
26622;SDS011;14254;50.968;5.366;2023-07-20T12:14:14;3.22;;;1.40;;
26622;SDS011;14254;50.968;5.366;2023-07-20T12:16:40;3.63;;;1.30;;
26622;SDS011;14254;50.968;5.366;2023-07-20T12:19:07;2.58;;;1.33;;
26622;SDS011;14254;50.968;5.366;2023-07-20T12:21:34;1.70;;;1.55;;
26622;SDS011;14254;50.968;5.366;2023-07-20T12:24:05;4.07;;;1.50;;
26622;SDS011;14254;50.968;5.366;2023-07-20T12:26:32;2.60;;;1.40;;
26622;SDS011;14254;50.968;5.366;2023-07-20T12:28:59;1.63;;;1.20;;
26622;SDS011;14254;50.968;5.366;2023-07-20T12:31:25;2.78;;;1.20;;
26622;SDS011;14254;50.968;5.366;2023-07-20T12:33:52;6.65;;;1.20;;
26622;SDS011;14254;50.968;5.366;2023-07-20T12:36:20;1.60;;;1.25;;
26622;SDS011;14254;50.968;5.366;2023-07-20T12:38:46;1.30;;;1.20;;
26622;SDS011;14254;50.968;5.366;2023-07-20T12:41:12;3.13;;;1.23;;
26622;SDS011;14254;50.968;5.366;2023-07-20T12:43:39;1.63;;;1.02;;
26622;SDS011;14254;50.968;5.366;2023-07-20T12:46:05;2.20;;;1.38;;
26622;SDS011;14254;50.968;5.366;2023-07-20T12:48:31;2.05;;;1.65;;
26622;SDS011;14254;50.968;5.366;2023-07-20T12:50:57;2.70;;;1.40;;
26622;SDS011;14254;50.968;5.366;2023-07-20T12:53:23;2.30;;;1.20;;
26622;SDS011;14254;50.968;5.366;2023-07-20T12:55:49;2.08;;;1.27;;
26622;SDS011;14254;50.968;5.366;2023-07-20T12:58:14;2.72;;;1.50;;
26622;SDS011;14254;50.968;5.366;2023-07-20T13:00:40;1.45;;;1.10;;
26622;SDS011;14254;50.968;5.366;2023-07-20T13:03:06;2.35;;;0.98;;
26622;SDS011;14254;50.968;5.366;2023-07-20T13:05:33;2.50;;;1.35;;
26622;SDS011;14254;50.968;5.366;2023-07-20T13:07:59;1.38;;;1.27;;
26622;SDS011;14254;50.968;5.366;2023-07-20T13:10:25;1.27;;;1.17;;
26622;SDS011;14254;50.968;5.366;2023-07-20T13:12:51;3.83;;;1.60;;
26622;SDS011;14254;50.968;5.366;2023-07-20T13:15:17;3.08;;;1.30;;
26622;SDS011;14254;50.968;5.366;2023-07-20T13:17:43;1.48;;;1.15;;
26622;SDS011;14254;50.968;5.366;2023-07-20T13:20:10;2.53;;;1.40;;
26622;SDS011;14254;50.968;5.366;2023-07-20T13:22:39;1.38;;;1.27;;
26622;SDS011;14254;50.968;5.366;2023-07-20T13:25:05;2.75;;;1.45;;
26622;SDS011;14254;50.968;5.366;2023-07-20T13:27:32;2.30;;;1.52;;
26622;SDS011;14254;50.968;5.366;2023-07-20T13:29:59;3.00;;;1.48;;
26622;SDS011;14254;50.968;5.366;2023-07-20T13:32:26;1.50;;;1.40;;
26622;SDS011;14254;50.968;5.366;2023-07-20T13:34:52;1.48;;;1.38;;
26622;SDS011;14254;50.968;5.366;2023-07-20T13:37:18;2.05;;;1.00;;
26622;SDS011;14254;50.968;5.366;2023-07-20T13:39:44;1.45;;;1.10;;
26622;SDS011;14254;50.968;5.366;2023-07-20T13:42:09;1.95;;;1.17;;
26622;SDS011;14254;50.968;5.366;2023-07-20T13:44:37;3.35;;;1.10;;
26622;SDS011;14254;50.968;5.366;2023-07-20T13:47:03;1.92;;;1.30;;
26622;SDS011;14254;50.968;5.366;2023-07-20T13:49:32;1.20;;;1.10;;
26622;SDS011;14254;50.968;5.366;2023-07-20T13:51:58;2.97;;;1.30;;
26622;SDS011;14254;50.968;5.366;2023-07-20T13:54:24;1.70;;;1.15;;
26622;SDS011;14254;50.968;5.366;2023-07-20T13:56:50;2.25;;;1.20;;
26622;SDS011;14254;50.968;5.366;2023-07-20T13:59:16;3.35;;;1.30;;
26622;SDS011;14254;50.968;5.366;2023-07-20T14:01:45;2.35;;;0.90;;
26622;SDS011;14254;50.968;5.366;2023-07-20T14:04:12;1.80;;;1.17;;
26622;SDS011;14254;50.968;5.366;2023-07-20T14:06:37;3.75;;;1.48;;
26622;SDS011;14254;50.968;5.366;2023-07-20T14:09:03;1.50;;;1.15;;
26622;SDS011;14254;50.968;5.366;2023-07-20T14:11:29;2.47;;;1.45;;
26622;SDS011;14254;50.968;5.366;2023-07-20T14:13:54;2.45;;;1.40;;
26622;SDS011;14254;50.968;5.366;2023-07-20T14:16:21;1.20;;;0.82;;
26622;SDS011;14254;50.968;5.366;2023-07-20T14:18:47;1.60;;;1.40;;
26622;SDS011;14254;50.968;5.366;2023-07-20T14:21:14;1.77;;;0.90;;
26622;SDS011;14254;50.968;5.366;2023-07-20T14:23:50;0.68;;;0.63;;
26622;SDS011;14254;50.968;5.366;2023-07-20T14:26:16;1.52;;;1.00;;
26622;SDS011;14254;50.968;5.366;2023-07-20T14:28:42;1.02;;;0.80;;
26622;SDS011;14254;50.968;5.366;2023-07-20T14:31:08;1.25;;;0.98;;
26622;SDS011;14254;50.968;5.366;2023-07-20T14:33:34;1.00;;;1.00;;
26622;SDS011;14254;50.968;5.366;2023-07-20T14:36:00;1.60;;;0.80;;
26622;SDS011;14254;50.968;5.366;2023-07-20T14:38:27;1.50;;;0.85;;
26622;SDS011;14254;50.968;5.366;2023-07-20T14:40:56;0.90;;;0.73;;
26622;SDS011;14254;50.968;5.366;2023-07-20T14:43:22;0.60;;;0.60;;
26622;SDS011;14254;50.968;5.366;2023-07-20T14:45:47;1.48;;;0.90;;
26622;SDS011;14254;50.968;5.366;2023-07-20T14:48:13;0.68;;;0.60;;
26622;SDS011;14254;50.968;5.366;2023-07-20T14:50:39;1.00;;;0.90;;
26622;SDS011;14254;50.968;5.366;2023-07-20T14:53:05;2.42;;;0.93;;
26622;SDS011;14254;50.968;5.366;2023-07-20T14:55:30;0.77;;;0.77;;
26622;SDS011;14254;50.968;5.366;2023-07-20T14:57:56;3.03;;;1.00;;
26622;SDS011;14254;50.968;5.366;2023-07-20T15:00:22;2.00;;;0.95;;
26622;SDS011;14254;50.968;5.366;2023-07-20T15:02:47;1.60;;;1.02;;